sensor_id;sensor_type;location;lat;lon;timestamp;P1;durP1;ratioP1;P2;durP2;ratioP2
8086;SDS011;4086;54.412;9.980;2023-08-12T00:01:54;4.70;;;4.07;;
8086;SDS011;4086;54.412;9.980;2023-08-12T00:04:20;3.80;;;3.60;;
8086;SDS011;4086;54.412;9.980;2023-08-12T00:06:47;4.90;;;4.50;;
8086;SDS011;4086;54.412;9.980;2023-08-12T00:09:14;4.67;;;4.20;;
8086;SDS011;4086;54.412;9.980;2023-08-12T00:11:40;4.93;;;4.43;;
8086;SDS011;4086;54.412;9.980;2023-08-12T00:14:07;5.13;;;4.37;;
8086;SDS011;4086;54.412;9.980;2023-08-12T00:16:34;4.40;;;4.10;;
8086;SDS011;4086;54.412;9.980;2023-08-12T00:19:01;4.27;;;3.87;;
8086;SDS011;4086;54.412;9.980;2023-08-12T00:21:27;4.60;;;4.20;;
8086;SDS011;4086;54.412;9.980;2023-08-12T00:23:53;4.33;;;3.83;;
8086;SDS011;4086;54.412;9.980;2023-08-12T00:26:20;4.93;;;4.10;;
8086;SDS011;4086;54.412;9.980;2023-08-12T00:28:48;4.67;;;4.23;;
8086;SDS011;4086;54.412;9.980;2023-08-12T00:31:15;4.27;;;3.87;;
8086;SDS011;4086;54.412;9.980;2023-08-12T00:33:42;5.23;;;4.73;;
8086;SDS011;4086;54.412;9.980;2023-08-12T00:36:09;4.60;;;4.20;;
8086;SDS011;4086;54.412;9.980;2023-08-12T00:38:35;4.80;;;4.40;;
8086;SDS011;4086;54.412;9.980;2023-08-12T00:41:01;4.80;;;4.47;;
8086;SDS011;4086;54.412;9.980;2023-08-12T00:43:29;5.10;;;4.70;;
8086;SDS011;4086;54.412;9.980;2023-08-12T00:45:55;5.13;;;4.73;;
8086;SDS011;4086;54.412;9.980;2023-08-12T00:48:21;4.70;;;4.30;;
8086;SDS011;4086;54.412;9.980;2023-08-12T00:50:56;4.50;;;4.10;;
8086;SDS011;4086;54.412;9.980;2023-08-12T00:53:22;4.67;;;3.83;;
8086;SDS011;4086;54.412;9.980;2023-08-12T00:55:49;5.00;;;4.40;;
8086;SDS011;4086;54.412;9.980;2023-08-12T00:58:15;4.50;;;4.10;;
8086;SDS011;4086;54.412;9.980;2023-08-12T01:00:42;4.40;;;4.10;;
8086;SDS011;4086;54.412;9.980;2023-08-12T01:03:08;5.20;;;4.70;;
8086;SDS011;4086;54.412;9.980;2023-08-12T01:05:34;4.87;;;4.43;;
8086;SDS011;4086;54.412;9.980;2023-08-12T01:08:02;4.20;;;3.67;;
8086;SDS011;4086;54.412;9.980;2023-08-12T01:10:36;4.70;;;4.30;;
8086;SDS011;4086;54.412;9.980;2023-08-12T01:13:06;4.10;;;3.80;;
8086;SDS011;4086;54.412;9.980;2023-08-12T01:15:35;3.97;;;3.67;;
8086;SDS011;4086;54.412;9.980;2023-08-12T01:18:03;5.10;;;4.20;;
8086;SDS011;4086;54.412;9.980;2023-08-12T01:20:31;4.33;;;4.03;;
8086;SDS011;4086;54.412;9.980;2023-08-12T01:22:58;4.57;;;4.17;;
8086;SDS011;4086;54.412;9.980;2023-08-12T01:25:34;4.13;;;3.80;;
8086;SDS011;4086;54.412;9.980;2023-08-12T01:28:01;4.43;;;4.00;;
8086;SDS011;4086;54.412;9.980;2023-08-12T01:30:28;4.53;;;4.23;;
8086;SDS011;4086;54.412;9.980;2023-08-12T01:32:56;4.37;;;4.07;;
8086;SDS011;4086;54.412;9.980;2023-08-12T01:35:26;4.80;;;4.40;;
8086;SDS011;4086;54.412;9.980;2023-08-12T01:37:54;4.50;;;4.20;;
8086;SDS011;4086;54.412;9.980;2023-08-12T01:40:25;4.87;;;4.40;;
8086;SDS011;4086;54.412;9.980;2023-08-12T01:42:52;4.90;;;4.50;;
8086;SDS011;4086;54.412;9.980;2023-08-12T01:45:18;6.67;;;5.47;;
8086;SDS011;4086;54.412;9.980;2023-08-12T01:47:45;4.83;;;4.43;;
8086;SDS011;4086;54.412;9.980;2023-08-12T01:50:12;5.20;;;4.80;;
8086;SDS011;4086;54.412;9.980;2023-08-12T01:52:39;5.30;;;4.77;;
8086;SDS011;4086;54.412;9.980;2023-08-12T01:55:05;4.40;;;4.10;;
8086;SDS011;4086;54.412;9.980;2023-08-12T01:57:33;5.07;;;4.67;;
8086;SDS011;4086;54.412;9.980;2023-08-12T02:00:00;4.93;;;4.60;;
8086;SDS011;4086;54.412;9.980;2023-08-12T02:02:26;5.00;;;4.70;;
8086;SDS011;4086;54.412;9.980;2023-08-12T02:04:53;5.70;;;4.73;;
8086;SDS011;4086;54.412;9.980;2023-08-12T02:07:19;5.43;;;4.93;;
8086;SDS011;4086;54.412;9.980;2023-08-12T02:09:45;4.70;;;4.40;;
8086;SDS011;4086;54.412;9.980;2023-08-12T02:12:12;4.63;;;4.23;;
8086;SDS011;4086;54.412;9.980;2023-08-12T02:14:40;4.60;;;4.30;;
8086;SDS011;4086;54.412;9.980;2023-08-12T02:17:06;6.93;;;4.50;;
8086;SDS011;4086;54.412;9.980;2023-08-12T02:19:32;4.60;;;4.20;;
8086;SDS011;4086;54.412;9.980;2023-08-12T02:21:59;5.40;;;4.73;;
8086;SDS011;4086;54.412;9.980;2023-08-12T02:24:25;5.20;;;4.80;;
8086;SDS011;4086;54.412;9.980;2023-08-12T02:26:52;5.50;;;5.00;;
8086;SDS011;4086;54.412;9.980;2023-08-12T02:29:19;5.30;;;4.90;;
8086;SDS011;4086;54.412;9.980;2023-08-12T02:31:46;5.27;;;4.77;;
8086;SDS011;4086;54.412;9.980;2023-08-12T02:34:13;4.83;;;4.43;;
8086;SDS011;4086;54.412;9.980;2023-08-12T02:36:39;5.63;;;4.50;;
8086;SDS011;4086;54.412;9.980;2023-08-12T02:39:05;5.97;;;5.47;;
8086;SDS011;4086;54.412;9.980;2023-08-12T02:41:32;6.07;;;4.93;;
8086;SDS011;4086;54.412;9.980;2023-08-12T02:43:58;5.07;;;4.67;;
8086;SDS011;4086;54.412;9.980;2023-08-12T02:46:25;7.80;;;5.40;;
8086;SDS011;4086;54.412;9.980;2023-08-12T02:48:52;5.43;;;5.03;;
8086;SDS011;4086;54.412;9.980;2023-08-12T02:51:19;6.97;;;5.40;;
8086;SDS011;4086;54.412;9.980;2023-08-12T02:53:45;5.43;;;4.93;;
8086;SDS011;4086;54.412;9.980;2023-08-12T02:56:11;9.30;;;5.23;;
8086;SDS011;4086;54.412;9.980;2023-08-12T02:58:38;6.83;;;6.33;;
8086;SDS011;4086;54.412;9.980;2023-08-12T03:01:04;6.20;;;5.63;;
8086;SDS011;4086;54.412;9.980;2023-08-12T03:03:31;6.87;;;6.23;;
8086;SDS011;4086;54.412;9.980;2023-08-12T03:05:58;7.30;;;6.60;;
8086;SDS011;4086;54.412;9.980;2023-08-12T03:08:25;7.07;;;6.57;;
8086;SDS011;4086;54.412;9.980;2023-08-12T03:10:57;7.40;;;6.60;;
8086;SDS011;4086;54.412;9.980;2023-08-12T03:13:24;7.87;;;7.27;;
8086;SDS011;4086;54.412;9.980;2023-08-12T03:15:50;8.57;;;7.57;;
8086;SDS011;4086;54.412;9.980;2023-08-12T03:18:17;8.00;;;7.30;;
8086;SDS011;4086;54.412;9.980;2023-08-12T03:20:43;9.27;;;8.37;;
8086;SDS011;4086;54.412;9.980;2023-08-12T03:23:11;8.23;;;7.57;;
8086;SDS011;4086;54.412;9.980;2023-08-12T03:25:37;7.50;;;6.80;;
8086;SDS011;4086;54.412;9.980;2023-08-12T03:28:04;7.77;;;7.13;;
8086;SDS011;4086;54.412;9.980;2023-08-12T03:30:30;10.27;;;9.33;;
8086;SDS011;4086;54.412;9.980;2023-08-12T03:32:57;8.60;;;7.90;;
8086;SDS011;4086;54.412;9.980;2023-08-12T03:35:23;10.23;;;9.23;;
8086;SDS011;4086;54.412;9.980;2023-08-12T03:37:50;9.03;;;8.30;;
8086;SDS011;4086;54.412;9.980;2023-08-12T03:40:18;8.27;;;7.57;;
8086;SDS011;4086;54.412;9.980;2023-08-12T03:42:45;8.03;;;7.33;;
8086;SDS011;4086;54.412;9.980;2023-08-12T03:45:11;10.77;;;9.77;;
8086;SDS011;4086;54.412;9.980;2023-08-12T03:47:37;8.87;;;7.90;;
8086;SDS011;4086;54.412;9.980;2023-08-12T03:50:05;10.73;;;9.77;;
8086;SDS011;4086;54.412;9.980;2023-08-12T03:52:32;9.10;;;8.30;;
8086;SDS011;4086;54.412;9.980;2023-08-12T03:54:58;11.10;;;10.10;;
8086;SDS011;4086;54.412;9.980;2023-08-12T03:57:26;11.60;;;10.03;;
8086;SDS011;4086;54.412;9.980;2023-08-12T03:59:52;13.80;;;12.60;;
8086;SDS011;4086;54.412;9.980;2023-08-12T04:02:19;12.17;;;10.97;;
8086;SDS011;4086;54.412;9.980;2023-08-12T04:04:45;14.47;;;13.13;;
8086;SDS011;4086;54.412;9.980;2023-08-12T04:07:11;11.90;;;10.90;;
8086;SDS011;4086;54.412;9.980;2023-08-12T04:09:38;13.77;;;12.67;;
8086;SDS011;4086;54.412;9.980;2023-08-12T04:12:04;15.33;;;13.93;;
8086;SDS011;4086;54.412;9.980;2023-08-12T04:14:33;13.93;;;12.77;;
8086;SDS011;4086;54.412;9.980;2023-08-12T04:16:59;12.33;;;11.23;;
8086;SDS011;4086;54.412;9.980;2023-08-12T04:19:25;12.40;;;11.40;;
8086;SDS011;4086;54.412;9.980;2023-08-12T04:21:52;11.37;;;10.43;;
8086;SDS011;4086;54.412;9.980;2023-08-12T04:24:18;16.20;;;14.70;;
8086;SDS011;4086;54.412;9.980;2023-08-12T04:26:44;12.13;;;11.03;;
8086;SDS011;4086;54.412;9.980;2023-08-12T04:29:11;15.07;;;13.87;;
8086;SDS011;4086;54.412;9.980;2023-08-12T04:31:39;11.77;;;10.87;;
8086;SDS011;4086;54.412;9.980;2023-08-12T04:34:06;12.73;;;11.73;;
8086;SDS011;4086;54.412;9.980;2023-08-12T04:36:33;16.50;;;15.00;;
8086;SDS011;4086;54.412;9.980;2023-08-12T04:38:59;15.80;;;14.60;;
8086;SDS011;4086;54.412;9.980;2023-08-12T04:41:26;12.03;;;10.83;;
8086;SDS011;4086;54.412;9.980;2023-08-12T04:43:52;10.67;;;9.77;;
8086;SDS011;4086;54.412;9.980;2023-08-12T04:46:19;11.13;;;10.30;;
8086;SDS011;4086;54.412;9.980;2023-08-12T04:48:47;17.00;;;15.50;;
8086;SDS011;4086;54.412;9.980;2023-08-12T04:51:13;18.20;;;16.70;;
8086;SDS011;4086;54.412;9.980;2023-08-12T04:53:39;18.03;;;16.47;;
8086;SDS011;4086;54.412;9.980;2023-08-12T04:56:06;13.83;;;12.63;;
8086;SDS011;4086;54.412;9.980;2023-08-12T04:58:32;14.07;;;12.87;;
8086;SDS011;4086;54.412;9.980;2023-08-12T05:01:00;18.57;;;16.70;;
8086;SDS011;4086;54.412;9.980;2023-08-12T05:03:26;13.37;;;12.17;;
8086;SDS011;4086;54.412;9.980;2023-08-12T05:05:54;15.80;;;14.50;;
8086;SDS011;4086;54.412;9.980;2023-08-12T05:08:20;16.77;;;15.27;;
8086;SDS011;4086;54.412;9.980;2023-08-12T05:10:47;14.60;;;13.30;;
8086;SDS011;4086;54.412;9.980;2023-08-12T05:13:13;17.30;;;15.70;;
8086;SDS011;4086;54.412;9.980;2023-08-12T05:15:40;16.87;;;15.27;;
8086;SDS011;4086;54.412;9.980;2023-08-12T05:18:06;18.00;;;16.50;;
8086;SDS011;4086;54.412;9.980;2023-08-12T05:20:33;12.57;;;11.57;;
8086;SDS011;4086;54.412;9.980;2023-08-12T05:23:01;15.80;;;14.57;;
8086;SDS011;4086;54.412;9.980;2023-08-12T05:25:27;15.03;;;13.83;;
8086;SDS011;4086;54.412;9.980;2023-08-12T05:27:53;11.60;;;10.70;;
8086;SDS011;4086;54.412;9.980;2023-08-12T05:30:20;14.93;;;13.63;;
8086;SDS011;4086;54.412;9.980;2023-08-12T05:32:46;16.73;;;15.23;;
8086;SDS011;4086;54.412;9.980;2023-08-12T05:35:13;18.27;;;16.77;;
8086;SDS011;4086;54.412;9.980;2023-08-12T05:37:39;16.43;;;14.93;;
8086;SDS011;4086;54.412;9.980;2023-08-12T05:40:07;12.90;;;11.80;;
8086;SDS011;4086;54.412;9.980;2023-08-12T05:42:34;13.63;;;12.50;;
8086;SDS011;4086;54.412;9.980;2023-08-12T05:45:01;16.13;;;14.83;;
8086;SDS011;4086;54.412;9.980;2023-08-12T05:47:28;11.77;;;10.77;;
8086;SDS011;4086;54.412;9.980;2023-08-12T05:49:54;17.77;;;16.20;;
8086;SDS011;4086;54.412;9.980;2023-08-12T05:52:21;15.70;;;14.27;;
8086;SDS011;4086;54.412;9.980;2023-08-12T05:54:47;17.17;;;15.73;;
8086;SDS011;4086;54.412;9.980;2023-08-12T05:57:15;18.30;;;16.80;;
8086;SDS011;4086;54.412;9.980;2023-08-12T05:59:41;16.17;;;14.63;;
8086;SDS011;4086;54.412;9.980;2023-08-12T06:02:07;17.80;;;16.23;;
8086;SDS011;4086;54.412;9.980;2023-08-12T06:04:35;19.63;;;17.73;;
8086;SDS011;4086;54.412;9.980;2023-08-12T06:07:01;15.47;;;14.17;;
8086;SDS011;4086;54.412;9.980;2023-08-12T06:09:27;13.77;;;12.67;;
8086;SDS011;4086;54.412;9.980;2023-08-12T06:11:54;18.63;;;16.97;;
8086;SDS011;4086;54.412;9.980;2023-08-12T06:14:21;15.13;;;13.83;;
8086;SDS011;4086;54.412;9.980;2023-08-12T06:16:48;17.63;;;16.07;;
8086;SDS011;4086;54.412;9.980;2023-08-12T06:19:14;14.33;;;13.23;;
8086;SDS011;4086;54.412;9.980;2023-08-12T06:21:40;14.77;;;13.47;;
8086;SDS011;4086;54.412;9.980;2023-08-12T06:24:07;17.53;;;16.00;;
8086;SDS011;4086;54.412;9.980;2023-08-12T06:26:33;18.67;;;16.87;;
8086;SDS011;4086;54.412;9.980;2023-08-12T06:29:00;14.50;;;13.23;;
8086;SDS011;4086;54.412;9.980;2023-08-12T06:31:27;18.00;;;16.50;;
8086;SDS011;4086;54.412;9.980;2023-08-12T06:33:54;17.70;;;16.10;;
8086;SDS011;4086;54.412;9.980;2023-08-12T06:36:20;12.03;;;11.00;;
8086;SDS011;4086;54.412;9.980;2023-08-12T06:38:46;11.70;;;10.70;;
8086;SDS011;4086;54.412;9.980;2023-08-12T06:41:13;16.77;;;15.27;;
8086;SDS011;4086;54.412;9.980;2023-08-12T06:43:39;13.90;;;12.50;;
8086;SDS011;4086;54.412;9.980;2023-08-12T06:46:05;17.13;;;15.80;;
8086;SDS011;4086;54.412;9.980;2023-08-12T06:48:34;16.23;;;14.63;;
8086;SDS011;4086;54.412;9.980;2023-08-12T06:51:00;18.67;;;17.17;;
8086;SDS011;4086;54.412;9.980;2023-08-12T06:53:31;13.60;;;12.50;;
8086;SDS011;4086;54.412;9.980;2023-08-12T06:55:58;17.77;;;16.07;;
8086;SDS011;4086;54.412;9.980;2023-08-12T06:58:24;16.47;;;14.97;;
8086;SDS011;4086;54.412;9.980;2023-08-12T07:00:51;21.80;;;19.80;;
8086;SDS011;4086;54.412;9.980;2023-08-12T07:03:18;17.40;;;15.90;;
8086;SDS011;4086;54.412;9.980;2023-08-12T07:05:45;22.70;;;20.53;;
8086;SDS011;4086;54.412;9.980;2023-08-12T07:08:12;20.83;;;18.83;;
8086;SDS011;4086;54.412;9.980;2023-08-12T07:10:38;19.93;;;17.90;;
8086;SDS011;4086;54.412;9.980;2023-08-12T07:13:05;21.37;;;19.17;;
8086;SDS011;4086;54.412;9.980;2023-08-12T07:15:31;22.27;;;20.27;;
8086;SDS011;4086;54.412;9.980;2023-08-12T07:17:58;20.13;;;18.33;;
8086;SDS011;4086;54.412;9.980;2023-08-12T07:20:24;18.93;;;17.13;;
8086;SDS011;4086;54.412;9.980;2023-08-12T07:22:52;15.77;;;14.47;;
8086;SDS011;4086;54.412;9.980;2023-08-12T07:25:19;14.87;;;13.57;;
8086;SDS011;4086;54.412;9.980;2023-08-12T07:27:45;18.07;;;16.50;;
8086;SDS011;4086;54.412;9.980;2023-08-12T07:30:11;18.43;;;16.73;;
8086;SDS011;4086;54.412;9.980;2023-08-12T07:32:38;16.33;;;14.93;;
8086;SDS011;4086;54.412;9.980;2023-08-12T07:35:05;19.80;;;18.00;;
8086;SDS011;4086;54.412;9.980;2023-08-12T07:37:32;21.20;;;19.27;;
8086;SDS011;4086;54.412;9.980;2023-08-12T07:39:59;18.03;;;16.50;;
8086;SDS011;4086;54.412;9.980;2023-08-12T07:42:26;17.90;;;16.20;;
8086;SDS011;4086;54.412;9.980;2023-08-12T07:44:52;18.70;;;16.93;;
8086;SDS011;4086;54.412;9.980;2023-08-12T07:47:19;24.10;;;21.73;;
8086;SDS011;4086;54.412;9.980;2023-08-12T07:49:45;23.03;;;20.77;;
8086;SDS011;4086;54.412;9.980;2023-08-12T07:52:11;25.80;;;23.30;;
8086;SDS011;4086;54.412;9.980;2023-08-12T07:54:38;20.40;;;18.40;;
8086;SDS011;4086;54.412;9.980;2023-08-12T07:57:05;26.30;;;23.83;;
8086;SDS011;4086;54.412;9.980;2023-08-12T07:59:32;23.57;;;21.17;;
8086;SDS011;4086;54.412;9.980;2023-08-12T08:01:58;18.30;;;16.60;;
8086;SDS011;4086;54.412;9.980;2023-08-12T08:04:24;17.10;;;15.60;;
8086;SDS011;4086;54.412;9.980;2023-08-12T08:06:51;19.73;;;17.93;;
8086;SDS011;4086;54.412;9.980;2023-08-12T08:09:17;25.73;;;23.13;;
8086;SDS011;4086;54.412;9.980;2023-08-12T08:11:43;19.03;;;17.33;;
8086;SDS011;4086;54.412;9.980;2023-08-12T08:14:11;22.83;;;20.63;;
8086;SDS011;4086;54.412;9.980;2023-08-12T08:16:37;22.27;;;20.17;;
8086;SDS011;4086;54.412;9.980;2023-08-12T08:19:05;17.27;;;15.57;;
8086;SDS011;4086;54.412;9.980;2023-08-12T08:21:31;21.87;;;19.87;;
8086;SDS011;4086;54.412;9.980;2023-08-12T08:23:58;15.30;;;13.93;;
8086;SDS011;4086;54.412;9.980;2023-08-12T08:26:24;16.23;;;14.63;;
8086;SDS011;4086;54.412;9.980;2023-08-12T08:28:51;21.13;;;19.13;;
8086;SDS011;4086;54.412;9.980;2023-08-12T08:31:19;20.90;;;18.80;;
8086;SDS011;4086;54.412;9.980;2023-08-12T08:33:45;16.70;;;15.10;;
8086;SDS011;4086;54.412;9.980;2023-08-12T08:36:12;17.23;;;15.67;;
8086;SDS011;4086;54.412;9.980;2023-08-12T08:38:38;20.03;;;17.90;;
8086;SDS011;4086;54.412;9.980;2023-08-12T08:41:05;15.57;;;14.23;;
8086;SDS011;4086;54.412;9.980;2023-08-12T08:43:32;15.20;;;13.63;;
8086;SDS011;4086;54.412;9.980;2023-08-12T08:46:00;18.03;;;16.27;;
8086;SDS011;4086;54.412;9.980;2023-08-12T08:48:28;18.50;;;16.50;;
8086;SDS011;4086;54.412;9.980;2023-08-12T08:50:55;12.53;;;11.43;;
8086;SDS011;4086;54.412;9.980;2023-08-12T08:53:21;15.37;;;13.70;;
8086;SDS011;4086;54.412;9.980;2023-08-12T08:55:48;15.50;;;14.10;;
8086;SDS011;4086;54.412;9.980;2023-08-12T08:58:14;13.37;;;12.03;;
8086;SDS011;4086;54.412;9.980;2023-08-12T09:00:41;11.53;;;10.37;;
8086;SDS011;4086;54.412;9.980;2023-08-12T09:03:08;18.27;;;16.57;;
8086;SDS011;4086;54.412;9.980;2023-08-12T09:05:37;16.80;;;15.20;;
8086;SDS011;4086;54.412;9.980;2023-08-12T09:08:04;13.93;;;12.63;;
8086;SDS011;4086;54.412;9.980;2023-08-12T09:10:35;16.67;;;14.97;;
8086;SDS011;4086;54.412;9.980;2023-08-12T09:13:02;16.93;;;14.83;;
8086;SDS011;4086;54.412;9.980;2023-08-12T09:15:29;16.80;;;15.07;;
8086;SDS011;4086;54.412;9.980;2023-08-12T09:17:55;16.43;;;14.83;;
8086;SDS011;4086;54.412;9.980;2023-08-12T09:20:21;11.43;;;10.20;;
8086;SDS011;4086;54.412;9.980;2023-08-12T09:22:52;10.97;;;9.87;;
8086;SDS011;4086;54.412;9.980;2023-08-12T09:25:21;13.10;;;11.93;;
8086;SDS011;4086;54.412;9.980;2023-08-12T09:27:48;18.53;;;16.83;;
8086;SDS011;4086;54.412;9.980;2023-08-12T09:30:14;12.27;;;11.10;;
8086;SDS011;4086;54.412;9.980;2023-08-12T09:32:41;17.23;;;15.03;;
8086;SDS011;4086;54.412;9.980;2023-08-12T09:35:10;11.77;;;10.77;;
8086;SDS011;4086;54.412;9.980;2023-08-12T09:37:42;14.10;;;12.70;;
8086;SDS011;4086;54.412;9.980;2023-08-12T09:40:10;7.57;;;6.80;;
8086;SDS011;4086;54.412;9.980;2023-08-12T09:42:43;10.13;;;9.13;;
8086;SDS011;4086;54.412;9.980;2023-08-12T09:45:10;11.27;;;10.03;;
8086;SDS011;4086;54.412;9.980;2023-08-12T09:47:37;8.53;;;7.77;;
8086;SDS011;4086;54.412;9.980;2023-08-12T09:50:06;9.10;;;8.30;;
8086;SDS011;4086;54.412;9.980;2023-08-12T09:52:33;8.87;;;8.07;;
8086;SDS011;4086;54.412;9.980;2023-08-12T09:54:59;10.53;;;9.63;;
8086;SDS011;4086;54.412;9.980;2023-08-12T09:57:29;11.17;;;9.97;;
8086;SDS011;4086;54.412;9.980;2023-08-12T09:59:56;9.07;;;8.10;;
8086;SDS011;4086;54.412;9.980;2023-08-12T10:02:23;11.33;;;8.17;;
8086;SDS011;4086;54.412;9.980;2023-08-12T10:04:50;7.03;;;6.33;;
8086;SDS011;4086;54.412;9.980;2023-08-12T10:07:20;7.60;;;6.17;;
8086;SDS011;4086;54.412;9.980;2023-08-12T10:09:48;7.10;;;6.50;;
8086;SDS011;4086;54.412;9.980;2023-08-12T10:12:15;13.13;;;11.83;;
8086;SDS011;4086;54.412;9.980;2023-08-12T10:14:43;9.00;;;8.20;;
8086;SDS011;4086;54.412;9.980;2023-08-12T10:17:09;8.80;;;7.90;;
8086;SDS011;4086;54.412;9.980;2023-08-12T10:19:35;9.10;;;8.30;;
8086;SDS011;4086;54.412;9.980;2023-08-12T10:22:02;10.00;;;8.90;;
8086;SDS011;4086;54.412;9.980;2023-08-12T10:24:29;9.63;;;8.67;;
8086;SDS011;4086;54.412;9.980;2023-08-12T10:26:56;9.47;;;8.57;;
8086;SDS011;4086;54.412;9.980;2023-08-12T10:29:22;11.50;;;10.47;;
8086;SDS011;4086;54.412;9.980;2023-08-12T10:31:51;7.07;;;6.47;;
8086;SDS011;4086;54.412;9.980;2023-08-12T10:34:18;7.73;;;6.93;;
8086;SDS011;4086;54.412;9.980;2023-08-12T10:36:45;7.40;;;6.70;;
8086;SDS011;4086;54.412;9.980;2023-08-12T10:39:12;7.70;;;7.10;;
8086;SDS011;4086;54.412;9.980;2023-08-12T10:41:39;7.13;;;6.43;;
8086;SDS011;4086;54.412;9.980;2023-08-12T10:44:16;7.00;;;6.40;;
8086;SDS011;4086;54.412;9.980;2023-08-12T10:46:50;11.33;;;10.33;;
8086;SDS011;4086;54.412;9.980;2023-08-12T10:49:18;6.43;;;5.83;;
8086;SDS011;4086;54.412;9.980;2023-08-12T10:51:46;8.70;;;7.90;;
8086;SDS011;4086;54.412;9.980;2023-08-12T10:54:14;8.30;;;7.50;;
8086;SDS011;4086;54.412;9.980;2023-08-12T10:59:51;7.50;;;6.80;;
8086;SDS011;4086;54.412;9.980;2023-08-12T11:02:21;10.77;;;9.77;;
8086;SDS011;4086;54.412;9.980;2023-08-12T11:04:49;10.00;;;9.20;;
8086;SDS011;4086;54.412;9.980;2023-08-12T11:07:17;11.33;;;10.43;;
8086;SDS011;4086;54.412;9.980;2023-08-12T11:09:44;11.23;;;10.23;;
8086;SDS011;4086;54.412;9.980;2023-08-12T11:12:16;9.20;;;8.30;;
8086;SDS011;4086;54.412;9.980;2023-08-12T11:14:46;11.37;;;10.27;;
8086;SDS011;4086;54.412;9.980;2023-08-12T11:17:14;10.40;;;9.40;;
8086;SDS011;4086;54.412;9.980;2023-08-12T11:19:42;10.80;;;9.70;;
8086;SDS011;4086;54.412;9.980;2023-08-12T11:22:09;10.37;;;9.27;;
8086;SDS011;4086;54.412;9.980;2023-08-12T11:24:38;12.33;;;11.07;;
8086;SDS011;4086;54.412;9.980;2023-08-12T11:27:08;11.37;;;10.37;;
8086;SDS011;4086;54.412;9.980;2023-08-12T11:29:35;9.80;;;8.90;;
8086;SDS011;4086;54.412;9.980;2023-08-12T11:32:02;15.03;;;13.70;;
8086;SDS011;4086;54.412;9.980;2023-08-12T11:34:28;13.73;;;12.33;;
8086;SDS011;4086;54.412;9.980;2023-08-12T11:36:57;14.73;;;13.43;;
8086;SDS011;4086;54.412;9.980;2023-08-12T11:39:24;13.10;;;12.00;;
8086;SDS011;4086;54.412;9.980;2023-08-12T11:41:50;12.50;;;11.30;;
8086;SDS011;4086;54.412;9.980;2023-08-12T11:44:17;13.20;;;11.90;;
8086;SDS011;4086;54.412;9.980;2023-08-12T11:46:47;12.40;;;11.13;;
8086;SDS011;4086;54.412;9.980;2023-08-12T11:49:14;13.80;;;12.50;;
8086;SDS011;4086;54.412;9.980;2023-08-12T11:51:40;12.07;;;10.97;;
8086;SDS011;4086;54.412;9.980;2023-08-12T11:54:08;15.90;;;14.50;;
8086;SDS011;4086;54.412;9.980;2023-08-12T11:56:35;14.87;;;13.37;;
8086;SDS011;4086;54.412;9.980;2023-08-12T11:59:02;13.43;;;12.23;;
8086;SDS011;4086;54.412;9.980;2023-08-12T12:01:30;16.70;;;13.53;;
8086;SDS011;4086;54.412;9.980;2023-08-12T12:03:59;17.67;;;16.07;;
8086;SDS011;4086;54.412;9.980;2023-08-12T12:06:32;18.07;;;16.37;;
8086;SDS011;4086;54.412;9.980;2023-08-12T12:09:02;18.77;;;17.17;;
8086;SDS011;4086;54.412;9.980;2023-08-12T12:11:36;17.60;;;15.80;;
8086;SDS011;4086;54.412;9.980;2023-08-12T12:14:02;16.40;;;14.90;;
8086;SDS011;4086;54.412;9.980;2023-08-12T12:16:37;15.57;;;14.17;;
8086;SDS011;4086;54.412;9.980;2023-08-12T12:19:04;13.80;;;12.57;;
8086;SDS011;4086;54.412;9.980;2023-08-12T12:21:38;14.50;;;13.10;;
8086;SDS011;4086;54.412;9.980;2023-08-12T12:24:05;13.83;;;12.20;;
8086;SDS011;4086;54.412;9.980;2023-08-12T12:26:32;14.77;;;13.27;;
8086;SDS011;4086;54.412;9.980;2023-08-12T12:28:59;14.40;;;12.90;;
8086;SDS011;4086;54.412;9.980;2023-08-12T12:31:26;12.33;;;11.10;;
8086;SDS011;4086;54.412;9.980;2023-08-12T12:33:52;15.60;;;14.13;;
8086;SDS011;4086;54.412;9.980;2023-08-12T12:36:18;16.73;;;14.23;;
8086;SDS011;4086;54.412;9.980;2023-08-12T12:38:45;15.17;;;13.63;;
8086;SDS011;4086;54.412;9.980;2023-08-12T12:41:11;12.87;;;11.70;;
8086;SDS011;4086;54.412;9.980;2023-08-12T12:43:38;14.83;;;13.43;;
8086;SDS011;4086;54.412;9.980;2023-08-12T12:46:05;16.57;;;15.07;;
8086;SDS011;4086;54.412;9.980;2023-08-12T12:48:32;14.30;;;13.00;;
8086;SDS011;4086;54.412;9.980;2023-08-12T12:50:59;16.00;;;14.43;;
8086;SDS011;4086;54.412;9.980;2023-08-12T12:53:25;15.43;;;14.03;;
8086;SDS011;4086;54.412;9.980;2023-08-12T12:55:51;19.10;;;17.07;;
8086;SDS011;4086;54.412;9.980;2023-08-12T12:58:18;15.77;;;14.27;;
8086;SDS011;4086;54.412;9.980;2023-08-12T13:00:47;17.20;;;15.70;;
8086;SDS011;4086;54.412;9.980;2023-08-12T13:03:15;16.83;;;15.33;;
8086;SDS011;4086;54.412;9.980;2023-08-12T13:05:41;18.63;;;16.83;;
8086;SDS011;4086;54.412;9.980;2023-08-12T13:08:07;16.97;;;15.30;;
8086;SDS011;4086;54.412;9.980;2023-08-12T13:10:34;17.87;;;16.00;;
8086;SDS011;4086;54.412;9.980;2023-08-12T13:13:00;15.70;;;14.30;;
8086;SDS011;4086;54.412;9.980;2023-08-12T13:15:26;12.83;;;11.73;;
8086;SDS011;4086;54.412;9.980;2023-08-12T13:17:53;15.17;;;13.77;;
8086;SDS011;4086;54.412;9.980;2023-08-12T13:20:21;13.20;;;12.10;;
8086;SDS011;4086;54.412;9.980;2023-08-12T13:22:47;14.93;;;13.60;;
8086;SDS011;4086;54.412;9.980;2023-08-12T13:25:13;14.10;;;12.27;;
8086;SDS011;4086;54.412;9.980;2023-08-12T13:27:40;10.57;;;9.57;;
8086;SDS011;4086;54.412;9.980;2023-08-12T13:30:06;12.03;;;10.93;;
8086;SDS011;4086;54.412;9.980;2023-08-12T13:32:33;12.23;;;11.03;;
8086;SDS011;4086;54.412;9.980;2023-08-12T13:35:00;12.07;;;10.90;;
8086;SDS011;4086;54.412;9.980;2023-08-12T13:37:27;10.27;;;9.27;;
8086;SDS011;4086;54.412;9.980;2023-08-12T13:39:54;10.80;;;9.90;;
8086;SDS011;4086;54.412;9.980;2023-08-12T13:42:20;10.23;;;9.23;;
8086;SDS011;4086;54.412;9.980;2023-08-12T13:44:46;8.93;;;8.13;;
8086;SDS011;4086;54.412;9.980;2023-08-12T13:47:13;8.53;;;7.80;;
8086;SDS011;4086;54.412;9.980;2023-08-12T13:49:39;7.57;;;6.97;;
8086;SDS011;4086;54.412;9.980;2023-08-12T13:52:06;7.67;;;7.07;;
8086;SDS011;4086;54.412;9.980;2023-08-12T13:54:33;7.40;;;6.80;;
8086;SDS011;4086;54.412;9.980;2023-08-12T13:57:00;8.23;;;7.57;;
8086;SDS011;4086;54.412;9.980;2023-08-12T13:59:27;7.90;;;7.30;;
8086;SDS011;4086;54.412;9.980;2023-08-12T14:01:53;8.30;;;7.60;;
8086;SDS011;4086;54.412;9.980;2023-08-12T14:04:19;7.83;;;7.13;;
8086;SDS011;4086;54.412;9.980;2023-08-12T14:06:46;7.27;;;6.67;;
8086;SDS011;4086;54.412;9.980;2023-08-12T14:09:12;7.07;;;6.53;;
8086;SDS011;4086;54.412;9.980;2023-08-12T14:11:40;7.53;;;7.03;;
8086;SDS011;4086;54.412;9.980;2023-08-12T14:14:06;6.83;;;6.33;;
8086;SDS011;4086;54.412;9.980;2023-08-12T14:16:33;8.17;;;7.57;;
8086;SDS011;4086;54.412;9.980;2023-08-12T14:18:59;8.63;;;7.83;;
8086;SDS011;4086;54.412;9.980;2023-08-12T14:21:26;8.60;;;8.00;;
8086;SDS011;4086;54.412;9.980;2023-08-12T14:23:52;8.77;;;8.07;;
8086;SDS011;4086;54.412;9.980;2023-08-12T14:26:18;8.93;;;8.23;;
8086;SDS011;4086;54.412;9.980;2023-08-12T14:28:46;9.17;;;8.30;;
8086;SDS011;4086;54.412;9.980;2023-08-12T14:31:12;8.40;;;7.80;;
8086;SDS011;4086;54.412;9.980;2023-08-12T14:33:39;8.20;;;7.50;;
8086;SDS011;4086;54.412;9.980;2023-08-12T14:36:05;9.40;;;8.60;;
8086;SDS011;4086;54.412;9.980;2023-08-12T14:38:32;7.43;;;6.83;;
8086;SDS011;4086;54.412;9.980;2023-08-12T14:40:59;8.50;;;7.90;;
8086;SDS011;4086;54.412;9.980;2023-08-12T14:43:25;7.50;;;6.90;;
8086;SDS011;4086;54.412;9.980;2023-08-12T14:45:53;9.33;;;8.63;;
8086;SDS011;4086;54.412;9.980;2023-08-12T14:48:19;8.93;;;8.13;;
8086;SDS011;4086;54.412;9.980;2023-08-12T14:50:46;8.03;;;7.40;;
8086;SDS011;4086;54.412;9.980;2023-08-12T14:53:12;7.07;;;6.47;;
8086;SDS011;4086;54.412;9.980;2023-08-12T14:55:38;9.00;;;8.37;;
8086;SDS011;4086;54.412;9.980;2023-08-12T14:58:05;9.20;;;8.40;;
8086;SDS011;4086;54.412;9.980;2023-08-12T15:00:31;10.33;;;9.43;;
8086;SDS011;4086;54.412;9.980;2023-08-12T15:03:00;8.13;;;7.33;;